»·PEaware :: N1655M KBUR-KFUL

N1655M :: KBUR-KFUL

FLIGHT INFORMATION

Flight Status: Arrived
Operator: Privately registered:
United States
More flights under this callsign
Pilot: Donivan M. (20253)
Aircraft: CESSNA 172 SKYHAWK
(C172)
More flights by this aircraft type
Origin: KBUR Bob Hope-Burbank
United States
Destination: KFUL Fullerton Mun
United States
More flights between these airports :: More routes between these airports
Route: +VPLRB KEMT VPLSC
File this flight plan on PilotEdge
Remarks: CAT 8 Rating
Altitude:
(Current/Filed)
3,000ft
Speed:
(Current/Filed)
115kts
Departed: 09-Oct-18 05:47 PM
Arrived: 09-Oct-18 06:07 PM
Distance/Time
Traveled:
27nm/0:20
Distance/Time
To Go:
Arrived

Flight Plot

Page will automatically refresh every two minutes.


Map Options




Map Legend


Flown Route
Filed Route
Departure Airport
Arrival Airport
Navaid (VOR, NDB)
Fix

Horizontal Profiles

Position Reports

Time Latitude Longitude Heading Altitude Ground
Speed
09-Oct-18 17:09 34.200203 -118.358746 263 721ft 0kts
09-Oct-18 17:10 34.200203 -118.358746 263 721ft 0kts
09-Oct-18 17:11 34.200203 -118.358746 263 721ft 0kts
09-Oct-18 17:12 34.200203 -118.358746 263 721ft 0kts
09-Oct-18 17:13 34.200203 -118.358746 263 721ft 0kts
09-Oct-18 17:14 34.200203 -118.358746 263 721ft 0kts
09-Oct-18 17:15 34.200203 -118.358746 263 721ft 0kts
09-Oct-18 17:16 34.200203 -118.358746 263 721ft 0kts
09-Oct-18 17:17 34.200203 -118.358746 263 721ft 0kts
09-Oct-18 17:18 34.200203 -118.358746 263 721ft 0kts
09-Oct-18 17:19 34.200203 -118.358746 263 721ft 0kts
09-Oct-18 17:20 34.200203 -118.358746 263 721ft 0kts
09-Oct-18 17:21 34.200203 -118.358746 263 721ft 0kts
09-Oct-18 17:22 34.200203 -118.358746 263 721ft 0kts
09-Oct-18 17:23 34.200203 -118.358746 263 721ft 0kts
09-Oct-18 17:24 34.200203 -118.358746 263 721ft 0kts
09-Oct-18 17:25 34.200203 -118.358746 263 721ft 0kts
09-Oct-18 17:26 34.200203 -118.358746 263 721ft 0kts
09-Oct-18 17:27 34.200203 -118.358746 263 721ft 0kts
09-Oct-18 17:28 34.200203 -118.358746 263 721ft 0kts
09-Oct-18 17:29 34.200203 -118.358746 263 721ft 0kts
09-Oct-18 17:30 34.200203 -118.358746 263 721ft 0kts
09-Oct-18 17:31 34.200203 -118.358746 263 721ft 0kts
09-Oct-18 17:32 34.200203 -118.358746 263 721ft 0kts
09-Oct-18 17:33 34.200203 -118.358746 263 721ft 0kts
09-Oct-18 17:34 34.200203 -118.358746 263 721ft 0kts
09-Oct-18 17:35 34.200203 -118.358746 263 721ft 0kts
09-Oct-18 17:36 34.200203 -118.358746 263 721ft 0kts
09-Oct-18 17:37 34.200203 -118.358746 263 721ft 0kts
09-Oct-18 17:38 34.200203 -118.358746 263 721ft 0kts
09-Oct-18 17:39 34.200203 -118.358746 263 721ft 0kts
09-Oct-18 17:40 34.200203 -118.358746 263 721ft 0kts
09-Oct-18 17:41 34.200203 -118.358746 263 721ft 0kts
09-Oct-18 17:42 34.200203 -118.358746 263 721ft 0kts
09-Oct-18 17:43 34.200203 -118.358746 263 721ft 0kts
09-Oct-18 17:44 34.199613 -118.358668 187 718ft 10kts
09-Oct-18 17:45 34.198948 -118.362352 272 722ft 15kts
09-Oct-18 17:46 34.199229 -118.368721 262 727ft 15kts
09-Oct-18 17:47 34.199158 -118.368887 216 727ft 0kts
09-Oct-18 17:48 34.199021 -118.368986 204 727ft 6kts
09-Oct-18 17:49 34.198352 -118.355303 91 1080ft 72kts
09-Oct-18 17:50 34.196585 -118.331420 104 1954ft 71kts
09-Oct-18 17:51 34.190843 -118.306309 105 2481ft 90kts
09-Oct-18 17:52 34.183107 -118.271670 111 2446ft 119kts
09-Oct-18 17:53 34.176482 -118.231730 105 2423ft 121kts
09-Oct-18 17:54 34.167638 -118.192582 110 2401ft 119kts
09-Oct-18 17:55 34.155516 -118.155884 125 2454ft 116kts
09-Oct-18 17:56 34.136806 -118.123343 129 2463ft 120kts
09-Oct-18 17:57 34.118115 -118.089431 126 2448ft 123kts
09-Oct-18 17:58 34.099243 -118.055248 126 2425ft 122kts
09-Oct-18 17:59 34.076518 -118.026596 150 2445ft 118kts
09-Oct-18 18:00 34.048173 -118.005816 153 2419ft 118kts
09-Oct-18 18:01 34.019659 -117.986406 152 2398ft 116kts
09-Oct-18 18:02 33.991207 -117.967672 151 2342ft 117kts
09-Oct-18 18:03 33.963232 -117.947902 157 2303ft 114kts
09-Oct-18 18:04 33.932572 -117.938183 168 1650ft 111kts
09-Oct-18 18:05 33.906579 -117.931065 169 1207ft 75kts
09-Oct-18 18:06 33.889696 -117.931375 239 880ft 66kts
09-Oct-18 18:07 33.878976 -117.946927 249 740ft 62kts
09-Oct-18 18:08 33.874490 -117.967274 253 317ft 61kts
09-Oct-18 18:09 33.871513 -117.982710 256 89ft 16kts
09-Oct-18 18:10 33.871012 -117.982847 76 90ft 10kts
09-Oct-18 18:11 33.871296 -117.979227 171 92ft 8kts
09-Oct-18 18:12 33.870666 -117.978931 82 93ft 0kts
09-Oct-18 18:13 33.870666 -117.978931 82 93ft 0kts

Navigation Log

Ident Type
1. KBUR Airport
2. VPLRB Navaid
3. Navaid
4. VPLSC Navaid
5. KFUL Airport